Time;durP1;ratioP1;P1;durP2;ratioP2;P2;SDS_P1;SDS_P2;PMS_P1;PMS_P2;Temp;Humidity;BMP_temperature;BMP_pressure;BME280_temperature;BME280_humidity;BME280_pressure;Samples;Min_cycle;Max_cycle;Signal;HPM_P1;HPM_P2
2022/04/21 00:02:09;;;;;;;9.95;2.88;;;;;;;;;;5066344;28;20048;-54
2022/04/21 00:04:34;;;;;;;5.82;2.42;;;;;;;;;;5089925;28;20035;-54
2022/04/21 00:07:00;;;;;;;6.35;2.50;;;;;;;;;;5089970;28;20024;-57
2022/04/21 00:09:26;;;;;;;5.30;2.25;;;;;;;;;;5065916;28;20020;-55
2022/04/21 00:11:52;;;;;;;8.52;2.35;;;;;;;;;;5089731;28;20027;-56
2022/04/21 00:14:18;;;;;;;3.13;2.03;;;;;;;;;;5090274;28;20391;-53
2022/04/21 00:16:45;;;;;;;5.10;2.75;;;;;;;;;;5071800;28;20040;-53
2022/04/21 00:19:11;;;;;;;5.88;2.47;;;;;;;;;;5083637;28;20043;-57
2022/04/21 00:24:22;;;;;;;6.18;1.90;;;;;;;;;;5076836;28;20039;-56
2022/04/21 00:26:48;;;;;;;7.60;2.08;;;;;;;;;;5078517;28;20032;-55
2022/04/21 00:29:14;;;;;;;5.75;2.38;;;;;;;;;;5091001;28;20016;-54
2022/04/21 00:31:40;;;;;;;10.43;2.55;;;;;;;;;;5093155;28;20396;-54
2022/04/21 00:34:06;;;;;;;7.43;2.53;;;;;;;;;;5075427;28;20036;-54
2022/04/21 00:36:32;;;;;;;9.52;2.50;;;;;;;;;;5080310;28;20040;-56
2022/04/21 00:38:58;;;;;;;4.47;2.50;;;;;;;;;;5085899;28;20017;-55
2022/04/21 00:41:24;;;;;;;4.50;2.15;;;;;;;;;;5080579;28;20028;-55
2022/04/21 00:43:50;;;;;;;7.10;2.55;;;;;;;;;;5062841;28;20025;-56
2022/04/21 00:46:19;;;;;;;8.18;2.60;;;;;;;;;;5075685;28;20020;-54
2022/04/21 00:48:46;;;;;;;5.22;2.70;;;;;;;;;;5075510;28;20468;-51
2022/04/21 00:51:12;;;;;;;5.13;2.70;;;;;;;;;;5072373;28;20572;-54
2022/04/21 00:53:39;;;;;;;7.40;3.03;;;;;;;;;;5082701;28;20032;-54
2022/04/21 00:56:05;;;;;;;5.75;2.70;;;;;;;;;;5059406;28;20021;-55
2022/04/21 00:58:32;;;;;;;6.85;2.22;;;;;;;;;;5065548;28;20453;-54
2022/04/21 01:00:58;;;;;;;10.02;2.67;;;;;;;;;;5071990;28;20110;-57
2022/04/21 01:03:24;;;;;;;6.82;2.15;;;;;;;;;;5064207;28;20053;-53
2022/04/21 01:05:51;;;;;;;4.57;2.53;;;;;;;;;;5080980;28;20430;-55
2022/04/21 01:08:17;;;;;;;5.07;2.50;;;;;;;;;;5086582;28;20069;-55
2022/04/21 01:10:43;;;;;;;6.35;2.60;;;;;;;;;;5079732;28;20243;-55
2022/04/21 01:13:10;;;;;;;6.05;2.17;;;;;;;;;;5073931;28;20029;-55
2022/04/21 01:15:36;;;;;;;6.88;2.30;;;;;;;;;;5086577;28;20145;-57
2022/04/21 01:18:03;;;;;;;6.50;2.58;;;;;;;;;;5079360;28;20098;-55
2022/04/21 01:20:29;;;;;;;7.20;2.80;;;;;;;;;;5068683;28;20484;-54
2022/04/21 01:22:55;;;;;;;7.45;2.88;;;;;;;;;;5056606;28;20051;-54
2022/04/21 01:25:22;;;;;;;9.43;2.67;;;;;;;;;;5088315;28;20040;-57
2022/04/21 01:27:49;;;;;;;8.57;2.83;;;;;;;;;;5078405;28;20029;-56
2022/04/21 01:30:15;;;;;;;4.35;2.63;;;;;;;;;;5071900;28;20060;-57
2022/04/21 01:32:42;;;;;;;6.32;2.75;;;;;;;;;;5082977;28;20021;-53
2022/04/21 01:35:09;;;;;;;7.85;2.67;;;;;;;;;;5068050;28;20404;-55
2022/04/21 01:43:06;;;;;;;4.93;2.70;;;;;;;;;;5063888;28;20085;-56
2022/04/21 01:45:32;;;;;;;6.22;2.70;;;;;;;;;;5073590;28;20040;-49
2022/04/21 01:47:58;;;;;;;7.25;2.88;;;;;;;;;;5089280;28;20038;-52
2022/04/21 01:50:25;;;;;;;10.52;2.83;;;;;;;;;;5078201;28;20053;-56
2022/04/21 01:52:51;;;;;;;6.55;2.70;;;;;;;;;;5061196;28;20032;-52
2022/04/21 01:55:17;;;;;;;9.55;2.92;;;;;;;;;;5066942;28;20032;-54
2022/04/21 01:57:43;;;;;;;8.18;2.50;;;;;;;;;;5069612;28;20775;-54
2022/04/21 02:00:09;;;;;;;5.18;2.58;;;;;;;;;;5070352;28;20086;-54
2022/04/21 02:02:35;;;;;;;5.97;2.83;;;;;;;;;;5084284;28;20039;-52
2022/04/21 02:05:02;;;;;;;8.40;2.88;;;;;;;;;;5075753;28;20029;-54
2022/04/21 02:07:28;;;;;;;5.43;3.28;;;;;;;;;;5068399;28;20111;-53
2022/04/21 02:09:55;;;;;;;9.20;2.85;;;;;;;;;;5079104;28;20016;-52
2022/04/21 02:12:21;;;;;;;11.00;2.90;;;;;;;;;;5071748;28;20024;-54
2022/04/21 02:14:48;;;;;;;6.20;3.40;;;;;;;;;;5083181;28;20061;-56
2022/04/21 02:17:14;;;;;;;9.88;3.85;;;;;;;;;;5087743;28;20094;-54
2022/04/21 02:19:40;;;;;;;7.68;2.85;;;;;;;;;;5075770;28;20809;-54
2022/04/21 02:22:06;;;;;;;8.57;3.97;;;;;;;;;;5064968;28;20060;-50
2022/04/21 02:24:32;;;;;;;7.32;3.10;;;;;;;;;;5058293;28;20047;-54
2022/04/21 02:26:58;;;;;;;10.05;3.90;;;;;;;;;;5062097;28;20032;-54
2022/04/21 02:29:24;;;;;;;7.22;3.85;;;;;;;;;;5076150;28;20039;-53
2022/04/21 02:31:50;;;;;;;10.63;3.35;;;;;;;;;;5074795;28;20025;-52
2022/04/21 02:34:16;;;;;;;8.63;3.33;;;;;;;;;;5066340;28;20028;-55
2022/04/21 02:36:42;;;;;;;7.80;3.20;;;;;;;;;;5070783;28;20028;-53
2022/04/21 02:39:08;;;;;;;8.27;2.97;;;;;;;;;;5079409;28;20437;-54
2022/04/21 02:41:34;;;;;;;9.45;3.42;;;;;;;;;;5075309;28;20543;-53
2022/04/21 02:44:00;;;;;;;9.70;3.10;;;;;;;;;;5063866;28;20028;-55
2022/04/21 02:46:28;;;;;;;13.38;3.90;;;;;;;;;;5065936;28;20028;-53
2022/04/21 02:48:55;;;;;;;4.15;2.67;;;;;;;;;;5078404;28;20013;-56
2022/04/21 02:51:21;;;;;;;12.65;4.20;;;;;;;;;;5081365;28;20129;-54
2022/04/21 02:59:17;;;;;;;9.07;3.17;;;;;;;;;;5067910;28;20179;-53
2022/04/21 03:01:43;;;;;;;4.95;2.80;;;;;;;;;;5085892;28;20486;-53
2022/04/21 03:04:09;;;;;;;7.88;3.10;;;;;;;;;;5058669;28;20056;-54
2022/04/21 03:06:35;;;;;;;7.35;2.75;;;;;;;;;;5087863;28;20020;-54
2022/04/21 03:09:00;;;;;;;5.43;2.70;;;;;;;;;;5089141;28;20391;-54
2022/04/21 03:11:26;;;;;;;6.35;3.25;;;;;;;;;;5059813;28;20036;-55
2022/04/21 03:13:53;;;;;;;5.43;3.33;;;;;;;;;;5064575;28;20408;-51
2022/04/21 03:16:19;;;;;;;7.85;2.78;;;;;;;;;;5057736;28;20040;-53
2022/04/21 03:18:45;;;;;;;10.70;4.18;;;;;;;;;;5079463;28;20368;-52
2022/04/21 03:26:41;;;;;;;8.32;3.35;;;;;;;;;;5069783;28;20161;-53
2022/04/21 03:29:07;;;;;;;12.85;3.75;;;;;;;;;;5086764;28;20052;-56
2022/04/21 03:31:33;;;;;;;6.28;3.35;;;;;;;;;;5079094;28;20081;-54
2022/04/21 03:33:59;;;;;;;12.23;3.80;;;;;;;;;;5061226;28;20025;-56
2022/04/21 03:36:25;;;;;;;9.25;3.70;;;;;;;;;;5046292;28;20033;-57
2022/04/21 03:38:51;;;;;;;7.53;3.17;;;;;;;;;;5062066;28;20074;-55
2022/04/21 03:41:17;;;;;;;5.65;3.08;;;;;;;;;;5083978;28;20024;-55
2022/04/21 03:43:43;;;;;;;8.35;3.03;;;;;;;;;;5065796;28;20040;-56
2022/04/21 03:46:09;;;;;;;5.60;3.28;;;;;;;;;;5074656;28;20028;-55
2022/04/21 03:48:35;;;;;;;9.38;3.08;;;;;;;;;;5076455;28;20031;-56
2022/04/21 03:51:01;;;;;;;7.85;3.72;;;;;;;;;;5070655;28;20552;-56
2022/04/21 03:53:27;;;;;;;9.02;3.00;;;;;;;;;;5071414;28;20033;-53
2022/04/21 03:55:53;;;;;;;8.43;3.17;;;;;;;;;;5054207;28;20075;-55
2022/04/21 03:58:19;;;;;;;9.48;3.75;;;;;;;;;;5064603;28;20047;-57
2022/04/21 04:00:45;;;;;;;9.77;4.15;;;;;;;;;;5071555;28;20438;-54
2022/04/21 04:03:11;;;;;;;8.80;4.35;;;;;;;;;;5071560;28;20067;-54
2022/04/21 04:05:37;;;;;;;9.50;4.13;;;;;;;;;;5079641;28;20028;-52
2022/04/21 04:10:54;;;;;;;11.15;3.63;;;;;;;;;;5088977;28;20036;-57
2022/04/21 04:13:20;;;;;;;11.75;4.43;;;;;;;;;;5056828;28;20511;-54
2022/04/21 04:15:48;;;;;;;12.48;4.30;;;;;;;;;;5057324;28;20369;-53
2022/04/21 04:18:15;;;;;;;12.10;4.03;;;;;;;;;;5062404;28;20553;-55
2022/04/21 04:20:41;;;;;;;12.57;3.92;;;;;;;;;;5060924;28;20473;-53
2022/04/21 04:23:07;;;;;;;6.88;3.58;;;;;;;;;;5089567;28;20123;-55
2022/04/21 04:25:33;;;;;;;12.50;4.38;;;;;;;;;;5057180;28;20140;-57
2022/04/21 04:27:59;;;;;;;5.63;3.45;;;;;;;;;;5081469;28;20093;-58
2022/04/21 04:30:25;;;;;;;10.38;4.43;;;;;;;;;;5060021;28;20047;-55
2022/04/21 04:32:51;;;;;;;8.35;3.90;;;;;;;;;;5063609;28;20124;-56
2022/04/21 04:35:17;;;;;;;9.30;4.10;;;;;;;;;;5067769;28;20032;-57
2022/04/21 04:37:43;;;;;;;9.65;4.03;;;;;;;;;;5059117;28;20028;-56
2022/04/21 04:40:09;;;;;;;9.32;4.00;;;;;;;;;;5074285;28;20453;-58
2022/04/21 04:42:35;;;;;;;9.75;4.13;;;;;;;;;;5067183;28;20036;-57
2022/04/21 04:47:45;;;;;;;8.75;3.55;;;;;;;;;;5065444;28;20100;-58
2022/04/21 04:50:12;;;;;;;9.02;4.03;;;;;;;;;;5088005;28;20036;-56
2022/04/21 04:52:38;;;;;;;11.75;3.95;;;;;;;;;;5079151;28;20033;-54
2022/04/21 04:55:04;;;;;;;11.43;4.35;;;;;;;;;;5059513;28;20465;-56
2022/04/21 04:57:31;;;;;;;6.28;3.60;;;;;;;;;;5079333;28;20025;-55
2022/04/21 04:59:57;;;;;;;12.23;4.15;;;;;;;;;;5065074;28;20039;-57
2022/04/21 05:02:23;;;;;;;10.93;4.63;;;;;;;;;;5071642;28;20024;-55
2022/04/21 05:04:49;;;;;;;9.02;4.25;;;;;;;;;;5088809;28;20094;-58
2022/04/21 05:07:17;;;;;;;11.13;3.67;;;;;;;;;;5092204;28;20035;-57
2022/04/21 05:09:42;;;;;;;9.75;3.72;;;;;;;;;;5082691;28;20021;-55
2022/04/21 05:12:09;;;;;;;8.38;4.38;;;;;;;;;;5086117;28;20069;-57
2022/04/21 05:14:36;;;;;;;11.20;4.38;;;;;;;;;;5069532;28;20025;-56
2022/04/21 05:17:02;;;;;;;8.60;3.85;;;;;;;;;;5073500;28;20028;-57
2022/04/21 05:19:28;;;;;;;12.55;4.30;;;;;;;;;;5077305;28;20177;-58
2022/04/21 05:21:54;;;;;;;7.90;3.97;;;;;;;;;;5047324;28;20056;-58
2022/04/21 05:24:21;;;;;;;8.00;4.00;;;;;;;;;;5063999;28;20028;-57
2022/04/21 05:26:47;;;;;;;8.07;4.03;;;;;;;;;;5063639;28;20017;-56
2022/04/21 05:31:59;;;;;;;7.85;3.50;;;;;;;;;;5078851;28;20030;-54
2022/04/21 05:34:26;;;;;;;9.27;4.38;;;;;;;;;;5083658;28;20715;-57
2022/04/21 05:36:52;;;;;;;10.68;4.40;;;;;;;;;;5075411;28;20036;-58
2022/04/21 05:39:18;;;;;;;8.80;4.28;;;;;;;;;;5071898;28;20161;-57
2022/04/21 05:41:44;;;;;;;7.88;3.80;;;;;;;;;;5081369;28;20040;-55
2022/04/21 05:44:11;;;;;;;9.18;3.55;;;;;;;;;;5066332;28;20480;-55
2022/04/21 05:46:37;;;;;;;10.43;4.22;;;;;;;;;;5065132;28;20025;-58
2022/04/21 05:49:03;;;;;;;12.93;4.30;;;;;;;;;;5073805;28;20031;-57
2022/04/21 05:51:30;;;;;;;8.48;3.80;;;;;;;;;;5051605;28;20488;-57
2022/04/21 05:53:58;;;;;;;9.88;4.90;;;;;;;;;;5082130;28;20024;-57
2022/04/21 05:56:24;;;;;;;10.98;4.13;;;;;;;;;;5069512;28;20040;-55
2022/04/21 05:58:50;;;;;;;7.50;3.67;;;;;;;;;;5063007;28;20055;-57
2022/04/21 06:01:16;;;;;;;9.13;3.58;;;;;;;;;;5064751;28;20472;-56
2022/04/21 06:03:42;;;;;;;10.23;4.20;;;;;;;;;;5068254;28;20036;-56
2022/04/21 06:06:09;;;;;;;9.80;3.28;;;;;;;;;;5061815;28;20512;-57
2022/04/21 06:08:35;;;;;;;8.27;3.58;;;;;;;;;;5079390;28;20941;-56
2022/04/21 06:11:01;;;;;;;10.75;3.75;;;;;;;;;;5064290;28;20490;-57
2022/04/21 06:13:27;;;;;;;8.57;3.53;;;;;;;;;;5078722;28;20021;-55
2022/04/21 06:15:54;;;;;;;10.98;3.60;;;;;;;;;;5075615;28;20086;-58
2022/04/21 06:18:20;;;;;;;8.27;3.80;;;;;;;;;;5059302;28;20024;-58
2022/04/21 06:20:47;;;;;;;10.50;3.67;;;;;;;;;;5073351;28;20028;-57
2022/04/21 06:23:13;;;;;;;11.80;4.22;;;;;;;;;;5090876;28;20586;-57
2022/04/21 06:25:40;;;;;;;9.77;4.68;;;;;;;;;;5076009;28;20751;-57
2022/04/21 06:28:06;;;;;;;11.18;3.97;;;;;;;;;;5052710;28;20528;-55
2022/04/21 06:30:32;;;;;;;8.88;4.38;;;;;;;;;;5083744;28;20028;-56
2022/04/21 06:33:02;;;;;;;8.13;3.78;;;;;;;;;;5077723;28;20108;-56
2022/04/21 06:35:28;;;;;;;12.95;4.90;;;;;;;;;;5066126;28;20021;-60
2022/04/21 06:37:54;;;;;;;8.73;4.05;;;;;;;;;;5064638;28;20043;-57
2022/04/21 06:40:20;;;;;;;6.95;3.40;;;;;;;;;;5075548;28;20047;-57
2022/04/21 06:42:46;;;;;;;7.63;3.70;;;;;;;;;;5057254;28;20246;-57
2022/04/21 06:48:04;;;;;;;6.72;3.45;;;;;;;;;;5065311;28;20030;-57
2022/04/21 06:50:33;;;;;;;6.60;4.25;;;;;;;;;;5080454;28;20047;-57
2022/04/21 06:53:00;;;;;;;9.35;3.80;;;;;;;;;;5064608;28;20108;-58
2022/04/21 06:55:26;;;;;;;12.18;3.92;;;;;;;;;;5063175;28;20085;-57
2022/04/21 06:57:52;;;;;;;9.65;4.00;;;;;;;;;;5073650;28;20040;-57
2022/04/21 07:00:18;;;;;;;6.13;3.63;;;;;;;;;;5082877;28;20024;-57
2022/04/21 07:02:45;;;;;;;9.90;3.83;;;;;;;;;;5055550;28;20056;-57
2022/04/21 07:05:14;;;;;;;5.35;3.30;;;;;;;;;;5076828;28;20028;-56
2022/04/21 07:07:41;;;;;;;9.30;3.60;;;;;;;;;;5065619;28;20147;-59
2022/04/21 07:10:07;;;;;;;9.88;4.15;;;;;;;;;;5060870;28;20036;-58
2022/04/21 07:12:33;;;;;;;9.05;3.67;;;;;;;;;;5086841;28;20387;-59
2022/04/21 07:15:00;;;;;;;11.55;3.70;;;;;;;;;;5061478;28;20480;-57
2022/04/21 07:17:26;;;;;;;6.97;3.40;;;;;;;;;;5060634;28;20502;-58
2022/04/21 07:19:53;;;;;;;7.75;3.20;;;;;;;;;;5067885;28;20024;-57
2022/04/21 07:22:20;;;;;;;10.98;3.70;;;;;;;;;;5074522;28;20028;-57
2022/04/21 07:24:46;;;;;;;9.18;3.20;;;;;;;;;;5072142;28;20107;-57
2022/04/21 07:27:12;;;;;;;8.05;3.53;;;;;;;;;;5074866;28;20103;-56
2022/04/21 07:29:38;;;;;;;4.75;2.83;;;;;;;;;;5081070;28;20036;-57
2022/04/21 07:32:05;;;;;;;6.10;2.83;;;;;;;;;;5059355;28;20524;-58
2022/04/21 07:34:31;;;;;;;18.10;3.83;;;;;;;;;;5060611;28;20108;-58
2022/04/21 07:36:57;;;;;;;9.30;3.58;;;;;;;;;;5071638;28;20028;-58
2022/04/21 07:39:23;;;;;;;9.63;3.38;;;;;;;;;;5087236;28;20353;-57
2022/04/21 07:41:48;;;;;;;10.05;3.50;;;;;;;;;;5077431;28;20042;-57
2022/04/21 07:44:14;;;;;;;9.63;3.60;;;;;;;;;;5089026;28;20028;-59
2022/04/21 07:46:40;;;;;;;9.25;3.75;;;;;;;;;;5057297;28;20119;-57
2022/04/21 07:51:51;;;;;;;8.68;3.55;;;;;;;;;;5065765;28;20055;-57
2022/04/21 07:54:17;;;;;;;7.03;2.97;;;;;;;;;;5066105;28;20403;-58
2022/04/21 07:56:43;;;;;;;9.65;3.92;;;;;;;;;;5060755;28;20479;-58
2022/04/21 07:59:09;;;;;;;8.75;3.88;;;;;;;;;;5066893;28;20044;-57
2022/04/21 08:01:35;;;;;;;9.10;4.18;;;;;;;;;;5078374;28;20139;-58
2022/04/21 08:04:03;;;;;;;9.88;3.33;;;;;;;;;;5060838;28;20029;-57
2022/04/21 08:06:29;;;;;;;7.72;3.50;;;;;;;;;;5063974;28;20505;-57
2022/04/21 08:08:55;;;;;;;8.70;4.18;;;;;;;;;;5092358;28;20031;-57
2022/04/21 08:11:22;;;;;;;8.38;3.30;;;;;;;;;;5070741;28;20434;-57
2022/04/21 08:13:48;;;;;;;10.65;3.55;;;;;;;;;;5074592;28;20048;-57
2022/04/21 08:16:15;;;;;;;11.98;3.30;;;;;;;;;;5076941;28;20089;-57
2022/04/21 08:18:41;;;;;;;7.28;3.97;;;;;;;;;;5072235;28;20112;-57
2022/04/21 08:21:07;;;;;;;13.43;3.70;;;;;;;;;;5073750;28;20465;-57
2022/04/21 08:23:36;;;;;;;6.95;3.35;;;;;;;;;;5063400;28;20398;-57
2022/04/21 08:32:33;;;;;;;8.57;3.58;;;;;;;;;;5051197;28;20115;-57
2022/04/21 08:34:23;;;;;;;7.68;3.50;;;;;;;;;;5058872;28;20039;-57
2022/04/21 08:36:49;;;;;;;8.15;4.00;;;;;;;;;;5071064;28;20037;-57
2022/04/21 08:39:15;;;;;;;12.13;3.50;;;;;;;;;;5078287;28;20024;-57
2022/04/21 08:41:42;;;;;;;11.27;4.03;;;;;;;;;;5064749;28;20024;-57
2022/04/21 08:44:10;;;;;;;10.40;4.57;;;;;;;;;;5069124;28;20064;-58
2022/04/21 08:46:39;;;;;;;8.95;3.83;;;;;;;;;;5057391;28;20059;-57
2022/04/21 08:49:05;;;;;;;8.23;4.20;;;;;;;;;;5073611;28;20032;-57
2022/04/21 08:51:33;;;;;;;7.18;3.63;;;;;;;;;;5063560;28;20044;-57
2022/04/21 08:54:00;;;;;;;8.98;3.85;;;;;;;;;;5065948;28;20032;-57
2022/04/21 08:56:26;;;;;;;6.68;3.55;;;;;;;;;;5068558;28;20078;-57
2022/04/21 08:58:52;;;;;;;11.85;4.63;;;;;;;;;;5060089;28;20027;-57
2022/04/21 09:01:19;;;;;;;8.23;3.92;;;;;;;;;;5064562;28;20033;-57
2022/04/21 09:03:47;;;;;;;11.35;4.28;;;;;;;;;;5075150;28;20395;-58
2022/04/21 09:06:13;;;;;;;11.10;4.30;;;;;;;;;;5074080;28;20533;-56
2022/04/21 09:08:39;;;;;;;11.95;4.47;;;;;;;;;;5077974;28;20028;-59
2022/04/21 09:11:09;;;;;;;11.27;4.50;;;;;;;;;;5074786;28;20039;-58
2022/04/21 09:13:39;;;;;;;7.65;4.63;;;;;;;;;;5055676;28;20100;-58
2022/04/21 09:16:07;;;;;;;8.45;4.18;;;;;;;;;;5054484;28;20446;-58
2022/04/21 09:18:36;;;;;;;8.95;4.20;;;;;;;;;;5074492;28;20479;-57
2022/04/21 09:21:06;;;;;;;11.05;4.10;;;;;;;;;;5058074;28;20040;-57
2022/04/21 09:23:33;;;;;;;10.10;4.50;;;;;;;;;;5074340;28;20035;-57
2022/04/21 09:26:06;;;;;;;7.95;4.40;;;;;;;;;;5060926;28;20029;-59
2022/04/21 09:28:33;;;;;;;12.88;4.60;;;;;;;;;;5068745;28;20023;-58
2022/04/21 09:31:00;;;;;;;9.18;4.20;;;;;;;;;;5066770;28;20033;-57
2022/04/21 09:33:36;;;;;;;8.80;4.05;;;;;;;;;;5065866;28;20075;-57
2022/04/21 09:36:03;;;;;;;7.93;4.28;;;;;;;;;;5069354;28;20123;-57
2022/04/21 09:38:29;;;;;;;11.20;4.93;;;;;;;;;;5073928;28;20112;-57
2022/04/21 09:40:55;;;;;;;8.88;4.35;;;;;;;;;;5062819;28;20025;-57
2022/04/21 09:43:32;;;;;;;16.13;4.53;;;;;;;;;;5066174;28;20047;-56
2022/04/21 09:46:19;;;;;;;11.70;4.30;;;;;;;;;;5068839;28;20024;-57
2022/04/21 09:48:46;;;;;;;6.35;3.92;;;;;;;;;;5052970;28;20138;-57
2022/04/21 09:51:17;;;;;;;9.40;3.95;;;;;;;;;;5062535;28;20037;-57
2022/04/21 09:53:49;;;;;;;9.90;4.32;;;;;;;;;;5071782;28;20038;-58
2022/04/21 09:56:15;;;;;;;11.48;4.97;;;;;;;;;;5063585;28;20311;-57
2022/04/21 09:58:43;;;;;;;7.70;4.38;;;;;;;;;;5077884;28;20062;-59
2022/04/21 10:01:09;;;;;;;9.40;4.70;;;;;;;;;;5064566;28;20056;-58
2022/04/21 10:03:35;;;;;;;8.65;4.43;;;;;;;;;;5067219;28;20043;-57
2022/04/21 10:06:02;;;;;;;12.57;4.72;;;;;;;;;;5073729;28;20063;-57
2022/04/21 10:08:29;;;;;;;8.73;4.95;;;;;;;;;;5069948;28;20032;-57
2022/04/21 10:10:56;;;;;;;11.90;4.75;;;;;;;;;;5079772;28;20016;-58
2022/04/21 10:13:23;;;;;;;44.08;20.73;;;;;;;;;;5068013;28;20024;-57
2022/04/21 10:15:51;;;;;;;9.88;5.45;;;;;;;;;;5073215;28;20029;-58
2022/04/21 10:18:17;;;;;;;12.15;4.97;;;;;;;;;;5081505;28;20031;-58
2022/04/21 10:20:45;;;;;;;7.32;4.60;;;;;;;;;;5080539;28;20054;-58
2022/04/21 10:23:13;;;;;;;19.33;7.95;;;;;;;;;;5070629;28;20032;-58
2022/04/21 10:25:41;;;;;;;13.15;5.45;;;;;;;;;;5070744;28;20469;-58
2022/04/21 10:28:25;;;;;;;17.58;7.80;;;;;;;;;;5074882;28;20031;-57
2022/04/21 10:30:51;;;;;;;20.95;7.07;;;;;;;;;;5065806;28;20033;-58
2022/04/21 10:33:17;;;;;;;11.00;4.75;;;;;;;;;;5081892;28;20111;-58
2022/04/21 10:35:43;;;;;;;8.23;4.57;;;;;;;;;;5083261;28;20023;-58
2022/04/21 10:38:15;;;;;;;42.67;16.08;;;;;;;;;;5070458;28;20020;-59
2022/04/21 10:40:58;;;;;;;10.60;4.85;;;;;;;;;;5061019;28;20027;-58
2022/04/21 10:43:24;;;;;;;8.75;4.20;;;;;;;;;;5044892;28;20492;-57
2022/04/21 10:46:06;;;;;;;9.77;4.40;;;;;;;;;;5062868;28;20029;-57
2022/04/21 10:48:42;;;;;;;13.18;5.43;;;;;;;;;;5061876;28;20086;-58
2022/04/21 10:51:08;;;;;;;87.72;32.33;;;;;;;;;;5080024;28;20503;-57
2022/04/21 10:57:26;;;;;;;9.57;4.55;;;;;;;;;;5070130;28;20074;-57
2022/04/21 10:59:29;;;;;;;11.02;5.15;;;;;;;;;;5075731;28;20047;-58
2022/04/21 11:01:55;;;;;;;5.43;4.18;;;;;;;;;;5050582;28;20112;-58
2022/04/21 11:04:22;;;;;;;12.57;5.82;;;;;;;;;;5056213;28;20468;-57
2022/04/21 11:06:50;;;;;;;34.78;15.35;;;;;;;;;;5066231;28;20066;-56
2022/04/21 11:09:35;;;;;;;10.25;6.07;;;;;;;;;;5079394;28;20024;-58
2022/04/21 11:12:01;;;;;;;20.90;10.45;;;;;;;;;;5070707;28;20033;-58
2022/04/21 11:14:28;;;;;;;28.35;12.52;;;;;;;;;;5076272;28;20021;-59
2022/04/21 11:16:55;;;;;;;9.35;5.35;;;;;;;;;;5053872;28;20050;-59
2022/04/21 11:19:30;;;;;;;24.40;11.15;;;;;;;;;;5055451;28;20086;-57
2022/04/21 11:21:57;;;;;;;6.53;5.25;;;;;;;;;;5061715;28;20095;-58
2022/04/21 11:24:24;;;;;;;13.80;8.05;;;;;;;;;;5062239;28;20435;-55
2022/04/21 11:26:56;;;;;;;9.70;5.60;;;;;;;;;;5061918;28;20027;-57
2022/04/21 11:29:23;;;;;;;10.97;5.77;;;;;;;;;;5063738;28;20035;-58
2022/04/21 11:31:49;;;;;;;12.40;6.10;;;;;;;;;;5066104;28;20024;-56
2022/04/21 11:34:25;;;;;;;10.77;5.70;;;;;;;;;;5070062;28;20039;-58
2022/04/21 11:36:56;;;;;;;10.25;6.20;;;;;;;;;;5055033;28;20029;-57
2022/04/21 11:39:22;;;;;;;10.07;5.13;;;;;;;;;;5066951;28;20056;-58
2022/04/21 11:41:49;;;;;;;8.27;5.32;;;;;;;;;;5083191;28;20111;-62
2022/04/21 11:44:25;;;;;;;8.25;5.38;;;;;;;;;;5065707;28;20041;-57
2022/04/21 11:46:51;;;;;;;11.65;5.30;;;;;;;;;;5056060;28;20050;-56
2022/04/21 11:49:17;;;;;;;9.93;5.05;;;;;;;;;;5073621;28;20487;-57
2022/04/21 11:51:44;;;;;;;11.90;5.07;;;;;;;;;;5066729;28;20255;-57
2022/04/21 11:54:11;;;;;;;9.32;5.10;;;;;;;;;;5066530;28;20412;-57
2022/04/21 11:56:38;;;;;;;7.07;4.78;;;;;;;;;;5061172;28;20091;-57
2022/04/21 11:59:07;;;;;;;9.43;4.90;;;;;;;;;;5079404;28;20033;-57
2022/04/21 12:07:15;;;;;;;8.82;4.80;;;;;;;;;;5066533;28;20047;-58
2022/04/21 12:09:41;;;;;;;;;;;;;;;;;;5077104;28;20031;-57
2022/04/21 12:12:08;;;;;;;9.65;4.72;;;;;;;;;;5076176;28;19908;-59
2022/04/21 12:14:35;;;;;;;9.15;4.30;;;;;;;;;;5059688;28;20071;-58
2022/04/21 12:17:04;;;;;;;9.20;4.35;;;;;;;;;;5071849;28;20025;-59
2022/04/21 12:19:38;;;;;;;9.00;4.78;;;;;;;;;;5067682;28;20086;-59
2022/04/21 12:22:08;;;;;;;8.02;4.50;;;;;;;;;;5073323;28;20037;-58
2022/04/21 12:24:42;;;;;;;6.25;4.47;;;;;;;;;;5065288;28;20032;-56
2022/04/21 12:27:08;;;;;;;;;;;;;;;;;;5084190;28;20039;-58
2022/04/21 12:29:45;;;;;;;8.68;4.40;;;;;;;;;;5057472;28;20328;-58
2022/04/21 12:32:11;;;;;;;8.00;4.38;;;;;;;;;;5062347;28;20067;-58
2022/04/21 12:34:40;;;;;;;6.65;4.20;;;;;;;;;;5040860;28;20029;-58
2022/04/21 12:37:07;;;;;;;7.85;4.05;;;;;;;;;;5079014;28;20029;-58
2022/04/21 12:39:33;;;;;;;7.25;3.55;;;;;;;;;;5073573;28;20494;-57
2022/04/21 12:42:01;;;;;;;9.63;4.45;;;;;;;;;;5069275;28;20425;-58
2022/04/21 12:44:27;;;;;;;8.43;4.40;;;;;;;;;;5054785;28;20032;-59
2022/04/21 12:46:57;;;;;;;10.40;4.07;;;;;;;;;;5057001;28;20021;-58
2022/04/21 12:49:24;;;;;;;8.05;4.50;;;;;;;;;;5051235;28;20029;-59
2022/04/21 12:51:50;;;;;;;7.70;4.55;;;;;;;;;;5054892;28;20483;-56
2022/04/21 12:54:26;;;;;;;7.93;4.20;;;;;;;;;;5072045;28;20036;-58
2022/04/21 12:56:53;;;;;;;8.02;4.47;;;;;;;;;;5076342;28;20494;-58
2022/04/21 12:59:19;;;;;;;6.45;4.32;;;;;;;;;;5078617;28;20487;-59
2022/04/21 13:01:45;;;;;;;6.40;4.32;;;;;;;;;;5061724;28;20040;-58
2022/04/21 13:04:11;;;;;;;8.57;4.60;;;;;;;;;;5066942;28;20032;-57
2022/04/21 13:06:37;;;;;;;5.30;3.88;;;;;;;;;;5072285;28;20051;-57
2022/04/21 13:09:03;;;;;;;8.68;4.70;;;;;;;;;;5063039;28;20038;-58
2022/04/21 13:11:29;;;;;;;6.28;3.75;;;;;;;;;;5081245;28;20016;-57
2022/04/21 13:13:55;;;;;;;8.48;4.18;;;;;;;;;;5063072;28;20024;-57
2022/04/21 13:16:21;;;;;;;8.98;4.13;;;;;;;;;;5062194;28;20388;-58
2022/04/21 13:18:47;;;;;;;10.00;4.25;;;;;;;;;;5062187;28;20111;-57
2022/04/21 13:23:58;;;;;;;7.93;4.78;;;;;;;;;;5067689;28;20071;-58
2022/04/21 13:26:28;;;;;;;8.15;4.72;;;;;;;;;;5084656;28;20051;-57
2022/04/21 13:28:55;;;;;;;11.63;4.65;;;;;;;;;;5062594;28;20033;-58
2022/04/21 13:34:05;;;;;;;8.30;4.07;;;;;;;;;;5080407;28;20082;-58
2022/04/21 13:36:31;;;;;;;8.85;5.35;;;;;;;;;;5091885;28;20464;-58
2022/04/21 13:38:58;;;;;;;17.45;6.03;;;;;;;;;;5073348;28;20036;-57
2022/04/21 13:41:25;;;;;;;8.63;4.80;;;;;;;;;;5076985;28;20270;-58
2022/04/21 13:43:51;;;;;;;9.13;4.65;;;;;;;;;;5068250;28;20052;-59
2022/04/21 13:46:17;;;;;;;9.35;4.25;;;;;;;;;;5060518;28;20116;-58
2022/04/21 13:48:44;;;;;;;6.88;3.83;;;;;;;;;;5075335;28;20031;-59
2022/04/21 13:51:10;;;;;;;5.10;3.85;;;;;;;;;;5063011;28;20488;-57
2022/04/21 13:53:36;;;;;;;6.35;3.63;;;;;;;;;;5070559;28;20037;-58
2022/04/21 13:56:06;;;;;;;5.72;3.72;;;;;;;;;;5076847;28;20454;-57
2022/04/21 13:58:33;;;;;;;7.30;4.20;;;;;;;;;;5090526;28;20051;-58
2022/04/21 14:00:59;;;;;;;5.63;3.55;;;;;;;;;;5078930;28;20035;-59
2022/04/21 14:03:25;;;;;;;9.40;3.97;;;;;;;;;;5069522;28;20107;-56
2022/04/21 14:05:51;;;;;;;3.95;2.90;;;;;;;;;;5087565;28;20020;-57
2022/04/21 14:08:18;;;;;;;5.57;3.20;;;;;;;;;;5075724;28;20029;-58
2022/04/21 14:10:44;;;;;;;6.15;3.50;;;;;;;;;;5067527;28;20032;-58
2022/04/21 14:13:10;;;;;;;5.70;3.03;;;;;;;;;;5068054;28;20020;-57
2022/04/21 14:15:36;;;;;;;4.65;3.25;;;;;;;;;;5084774;28;20081;-57
2022/04/21 14:18:02;;;;;;;5.65;3.47;;;;;;;;;;5087672;28;20027;-58
2022/04/21 14:20:29;;;;;;;4.95;3.50;;;;;;;;;;5076628;28;20033;-57
2022/04/21 14:22:56;;;;;;;6.72;3.30;;;;;;;;;;5079244;28;20393;-58
2022/04/21 14:25:22;;;;;;;7.25;3.40;;;;;;;;;;5079252;28;20568;-57
2022/04/21 14:27:48;;;;;;;5.55;3.65;;;;;;;;;;5078727;28;20039;-57
2022/04/21 14:30:14;;;;;;;5.65;3.53;;;;;;;;;;5076730;28;20020;-56
2022/04/21 14:32:41;;;;;;;6.57;3.45;;;;;;;;;;5069836;28;20039;-58
2022/04/21 14:35:07;;;;;;;4.93;3.40;;;;;;;;;;5079554;28;20032;-57
2022/04/21 14:45:48;;;;;;;6.95;4.22;;;;;;;;;;5050938;28;20047;-58
2022/04/21 14:48:14;;;;;;;6.45;4.07;;;;;;;;;;5058322;28;20029;-55
2022/04/21 14:50:40;;;;;;;6.75;3.92;;;;;;;;;;5069089;28;20078;-58
2022/04/21 14:53:06;;;;;;;5.75;3.72;;;;;;;;;;5078665;28;20024;-57
2022/04/21 14:55:32;;;;;;;7.05;4.30;;;;;;;;;;5066023;28;20572;-58
2022/04/21 14:57:58;;;;;;;6.82;4.82;;;;;;;;;;5073621;28;20462;-57
2022/04/21 15:00:24;;;;;;;9.02;4.45;;;;;;;;;;5062973;28;20377;-57
2022/04/21 15:02:52;;;;;;;5.95;4.35;;;;;;;;;;5057589;28;20027;-57
2022/04/21 15:05:18;;;;;;;7.13;4.38;;;;;;;;;;5053429;28;20036;-58
2022/04/21 15:07:44;;;;;;;7.13;4.68;;;;;;;;;;5057984;28;20028;-59
2022/04/21 15:10:10;;;;;;;5.95;3.78;;;;;;;;;;5052546;28;20028;-57
2022/04/21 15:12:36;;;;;;;6.07;4.03;;;;;;;;;;5051116;28;20063;-58
2022/04/21 15:15:03;;;;;;;6.25;4.28;;;;;;;;;;5053169;28;20024;-58
2022/04/21 15:17:29;;;;;;;6.28;4.05;;;;;;;;;;5050310;28;20036;-58
2022/04/21 15:19:55;;;;;;;6.70;4.15;;;;;;;;;;5048781;28;20431;-59
2022/04/21 15:22:22;;;;;;;7.15;4.55;;;;;;;;;;5055044;28;20029;-60
2022/04/21 15:24:52;;;;;;;6.72;4.50;;;;;;;;;;5055474;28;20111;-59
2022/04/21 15:27:18;;;;;;;6.85;4.75;;;;;;;;;;5049059;28;20025;-59
2022/04/21 15:29:44;;;;;;;6.45;4.15;;;;;;;;;;5054474;28;20036;-57
2022/04/21 15:32:10;;;;;;;7.50;4.90;;;;;;;;;;5051846;28;20021;-57
2022/04/21 15:34:37;;;;;;;9.48;5.00;;;;;;;;;;5054155;28;20040;-57
2022/04/21 15:37:03;;;;;;;7.97;5.40;;;;;;;;;;5055524;28;20031;-57
2022/04/21 15:39:29;;;;;;;5.30;3.63;;;;;;;;;;5049465;28;20640;-57
2022/04/21 15:41:55;;;;;;;7.15;4.50;;;;;;;;;;5052314;28;20043;-57